sensor_id;sensor_type;location;lat;lon;timestamp;P1;durP1;ratioP1;P2;durP2;ratioP2
33858;SDS011;20156;47.486;12.074;2023-01-04T00:01:31;22.03;;;16.20;;
33858;SDS011;20156;47.486;12.074;2023-01-04T00:03:56;18.90;;;14.93;;
33858;SDS011;20156;47.486;12.074;2023-01-04T00:06:22;21.00;;;15.73;;
33858;SDS011;20156;47.486;12.074;2023-01-04T00:08:48;23.10;;;16.60;;
33858;SDS011;20156;47.486;12.074;2023-01-04T00:11:15;24.67;;;17.43;;
33858;SDS011;20156;47.486;12.074;2023-01-04T00:13:42;27.07;;;18.83;;
33858;SDS011;20156;47.486;12.074;2023-01-04T00:16:10;30.30;;;19.97;;
33858;SDS011;20156;47.486;12.074;2023-01-04T00:18:37;23.07;;;16.73;;
33858;SDS011;20156;47.486;12.074;2023-01-04T00:21:07;21.50;;;16.23;;
33858;SDS011;20156;47.486;12.074;2023-01-04T00:23:40;24.23;;;17.30;;
33858;SDS011;20156;47.486;12.074;2023-01-04T00:26:11;25.93;;;17.47;;
33858;SDS011;20156;47.486;12.074;2023-01-04T00:28:38;23.73;;;17.97;;
33858;SDS011;20156;47.486;12.074;2023-01-04T00:31:05;23.37;;;16.13;;
33858;SDS011;20156;47.486;12.074;2023-01-04T00:33:32;21.43;;;15.70;;
33858;SDS011;20156;47.486;12.074;2023-01-04T00:36:01;22.50;;;16.87;;
33858;SDS011;20156;47.486;12.074;2023-01-04T00:38:31;28.13;;;19.20;;
33858;SDS011;20156;47.486;12.074;2023-01-04T00:40:57;25.33;;;18.80;;
33858;SDS011;20156;47.486;12.074;2023-01-04T00:43:23;28.13;;;20.93;;
33858;SDS011;20156;47.486;12.074;2023-01-04T00:45:48;35.40;;;23.13;;
33858;SDS011;20156;47.486;12.074;2023-01-04T00:48:14;28.37;;;19.70;;
33858;SDS011;20156;47.486;12.074;2023-01-04T00:50:39;26.80;;;17.40;;
33858;SDS011;20156;47.486;12.074;2023-01-04T00:53:05;26.67;;;17.83;;
33858;SDS011;20156;47.486;12.074;2023-01-04T00:55:30;24.97;;;18.80;;
33858;SDS011;20156;47.486;12.074;2023-01-04T00:57:57;24.83;;;17.20;;
33858;SDS011;20156;47.486;12.074;2023-01-04T01:00:22;27.60;;;18.03;;
33858;SDS011;20156;47.486;12.074;2023-01-04T01:02:48;25.10;;;17.50;;
33858;SDS011;20156;47.486;12.074;2023-01-04T01:05:14;26.20;;;18.10;;
33858;SDS011;20156;47.486;12.074;2023-01-04T01:07:39;27.33;;;18.07;;
33858;SDS011;20156;47.486;12.074;2023-01-04T01:10:05;23.87;;;17.13;;
33858;SDS011;20156;47.486;12.074;2023-01-04T01:12:30;24.23;;;17.87;;
33858;SDS011;20156;47.486;12.074;2023-01-04T01:14:56;22.97;;;17.23;;
33858;SDS011;20156;47.486;12.074;2023-01-04T01:17:21;25.33;;;17.37;;
33858;SDS011;20156;47.486;12.074;2023-01-04T01:19:47;22.53;;;17.23;;
33858;SDS011;20156;47.486;12.074;2023-01-04T01:22:12;24.80;;;18.20;;
33858;SDS011;20156;47.486;12.074;2023-01-04T01:24:37;55.90;;;33.20;;
33858;SDS011;20156;47.486;12.074;2023-01-04T01:27:03;39.07;;;25.33;;
33858;SDS011;20156;47.486;12.074;2023-01-04T01:29:28;36.90;;;24.20;;
33858;SDS011;20156;47.486;12.074;2023-01-04T01:31:54;35.90;;;24.40;;
33858;SDS011;20156;47.486;12.074;2023-01-04T01:34:19;32.80;;;22.90;;
33858;SDS011;20156;47.486;12.074;2023-01-04T01:36:45;29.57;;;20.37;;
33858;SDS011;20156;47.486;12.074;2023-01-04T01:39:10;30.23;;;20.57;;
33858;SDS011;20156;47.486;12.074;2023-01-04T01:41:36;29.50;;;18.63;;
33858;SDS011;20156;47.486;12.074;2023-01-04T01:44:03;26.37;;;17.23;;
33858;SDS011;20156;47.486;12.074;2023-01-04T01:46:50;21.33;;;16.10;;
33858;SDS011;20156;47.486;12.074;2023-01-04T01:49:23;23.20;;;17.53;;
33858;SDS011;20156;47.486;12.074;2023-01-04T01:51:53;23.93;;;17.20;;
33858;SDS011;20156;47.486;12.074;2023-01-04T01:54:22;27.17;;;19.50;;
33858;SDS011;20156;47.486;12.074;2023-01-04T01:56:57;25.87;;;18.33;;
33858;SDS011;20156;47.486;12.074;2023-01-04T01:59:25;25.77;;;18.57;;
33858;SDS011;20156;47.486;12.074;2023-01-04T02:01:52;30.63;;;20.13;;
33858;SDS011;20156;47.486;12.074;2023-01-04T02:04:18;24.30;;;17.10;;
33858;SDS011;20156;47.486;12.074;2023-01-04T02:06:47;22.07;;;16.97;;
33858;SDS011;20156;47.486;12.074;2023-01-04T02:09:16;30.37;;;20.80;;
33858;SDS011;20156;47.486;12.074;2023-01-04T02:11:43;27.37;;;19.13;;
33858;SDS011;20156;47.486;12.074;2023-01-04T02:14:08;25.93;;;18.50;;
33858;SDS011;20156;47.486;12.074;2023-01-04T02:34:12;24.77;;;18.33;;
33858;SDS011;20156;47.486;12.074;2023-01-04T02:42:42;27.23;;;18.80;;
33858;SDS011;20156;47.486;12.074;2023-01-04T02:48:38;27.30;;;18.03;;
33858;SDS011;20156;47.486;12.074;2023-01-04T02:51:28;23.80;;;16.23;;
33858;SDS011;20156;47.486;12.074;2023-01-04T02:53:56;28.93;;;19.80;;
33858;SDS011;20156;47.486;12.074;2023-01-04T03:07:54;20.60;;;15.37;;
33858;SDS011;20156;47.486;12.074;2023-01-04T03:13:15;27.30;;;19.13;;
33858;SDS011;20156;47.486;12.074;2023-01-04T03:15:47;24.97;;;17.97;;
33858;SDS011;20156;47.486;12.074;2023-01-04T03:18:18;28.50;;;19.40;;
33858;SDS011;20156;47.486;12.074;2023-01-04T03:20:52;26.13;;;19.07;;
33858;SDS011;20156;47.486;12.074;2023-01-04T03:23:21;24.73;;;17.63;;
33858;SDS011;20156;47.486;12.074;2023-01-04T03:26:10;26.13;;;18.90;;
33858;SDS011;20156;47.486;12.074;2023-01-04T03:28:59;27.33;;;19.33;;
33858;SDS011;20156;47.486;12.074;2023-01-04T03:31:54;28.77;;;19.33;;
33858;SDS011;20156;47.486;12.074;2023-01-04T03:34:44;25.63;;;18.87;;
33858;SDS011;20156;47.486;12.074;2023-01-04T03:37:36;28.23;;;18.60;;
33858;SDS011;20156;47.486;12.074;2023-01-04T03:43:16;24.07;;;17.60;;
33858;SDS011;20156;47.486;12.074;2023-01-04T03:46:11;24.47;;;18.17;;
33858;SDS011;20156;47.486;12.074;2023-01-04T03:48:57;26.87;;;16.77;;
33858;SDS011;20156;47.486;12.074;2023-01-04T03:51:31;26.97;;;18.37;;
33858;SDS011;20156;47.486;12.074;2023-01-04T03:54:11;24.47;;;17.63;;
33858;SDS011;20156;47.486;12.074;2023-01-04T03:56:41;25.67;;;17.80;;
33858;SDS011;20156;47.486;12.074;2023-01-04T03:59:09;24.73;;;17.10;;
33858;SDS011;20156;47.486;12.074;2023-01-04T04:01:35;23.50;;;17.43;;
33858;SDS011;20156;47.486;12.074;2023-01-04T04:04:02;24.07;;;16.87;;
33858;SDS011;20156;47.486;12.074;2023-01-04T04:06:45;22.70;;;16.33;;
33858;SDS011;20156;47.486;12.074;2023-01-04T04:09:29;22.63;;;15.60;;
33858;SDS011;20156;47.486;12.074;2023-01-04T04:11:57;21.63;;;14.83;;
33858;SDS011;20156;47.486;12.074;2023-01-04T04:14:23;20.47;;;14.80;;
33858;SDS011;20156;47.486;12.074;2023-01-04T04:16:49;24.03;;;16.57;;
33858;SDS011;20156;47.486;12.074;2023-01-04T04:19:14;22.37;;;15.53;;
33858;SDS011;20156;47.486;12.074;2023-01-04T04:21:40;21.40;;;15.03;;
33858;SDS011;20156;47.486;12.074;2023-01-04T04:24:05;19.20;;;14.67;;
33858;SDS011;20156;47.486;12.074;2023-01-04T04:26:31;25.23;;;17.60;;
33858;SDS011;20156;47.486;12.074;2023-01-04T04:28:57;30.73;;;19.53;;
33858;SDS011;20156;47.486;12.074;2023-01-04T04:31:22;29.13;;;19.67;;
33858;SDS011;20156;47.486;12.074;2023-01-04T04:33:47;34.07;;;21.77;;
33858;SDS011;20156;47.486;12.074;2023-01-04T04:36:13;32.60;;;22.10;;
33858;SDS011;20156;47.486;12.074;2023-01-04T04:38:38;25.80;;;18.27;;
33858;SDS011;20156;47.486;12.074;2023-01-04T04:41:08;31.23;;;22.33;;
33858;SDS011;20156;47.486;12.074;2023-01-04T04:43:53;33.53;;;22.77;;
33858;SDS011;20156;47.486;12.074;2023-01-04T04:46:18;32.10;;;22.10;;
33858;SDS011;20156;47.486;12.074;2023-01-04T04:48:44;31.63;;;21.67;;
33858;SDS011;20156;47.486;12.074;2023-01-04T04:51:09;24.77;;;17.93;;
33858;SDS011;20156;47.486;12.074;2023-01-04T04:53:35;29.43;;;21.27;;
33858;SDS011;20156;47.486;12.074;2023-01-04T04:56:00;32.80;;;22.10;;
33858;SDS011;20156;47.486;12.074;2023-01-04T04:58:26;27.90;;;19.73;;
33858;SDS011;20156;47.486;12.074;2023-01-04T05:00:51;27.13;;;19.37;;
33858;SDS011;20156;47.486;12.074;2023-01-04T05:03:16;33.67;;;22.17;;
33858;SDS011;20156;47.486;12.074;2023-01-04T05:05:42;30.60;;;20.57;;
33858;SDS011;20156;47.486;12.074;2023-01-04T05:08:07;27.17;;;19.93;;
33858;SDS011;20156;47.486;12.074;2023-01-04T05:10:33;30.40;;;22.20;;
33858;SDS011;20156;47.486;12.074;2023-01-04T05:12:58;29.97;;;20.43;;
33858;SDS011;20156;47.486;12.074;2023-01-04T05:15:37;33.80;;;23.47;;
33858;SDS011;20156;47.486;12.074;2023-01-04T05:18:05;30.13;;;21.27;;
33858;SDS011;20156;47.486;12.074;2023-01-04T05:20:32;34.33;;;23.80;;
33858;SDS011;20156;47.486;12.074;2023-01-04T05:22:58;29.20;;;20.70;;
33858;SDS011;20156;47.486;12.074;2023-01-04T05:25:24;31.33;;;22.53;;
33858;SDS011;20156;47.486;12.074;2023-01-04T05:27:50;26.97;;;19.77;;
33858;SDS011;20156;47.486;12.074;2023-01-04T05:30:16;26.63;;;18.07;;
33858;SDS011;20156;47.486;12.074;2023-01-04T05:33:00;25.93;;;17.80;;
33858;SDS011;20156;47.486;12.074;2023-01-04T05:35:26;25.63;;;18.57;;
33858;SDS011;20156;47.486;12.074;2023-01-04T05:37:52;27.13;;;19.20;;
33858;SDS011;20156;47.486;12.074;2023-01-04T05:40:18;26.43;;;18.97;;
33858;SDS011;20156;47.486;12.074;2023-01-04T05:42:44;26.07;;;18.37;;
33858;SDS011;20156;47.486;12.074;2023-01-04T05:45:09;26.70;;;20.03;;
33858;SDS011;20156;47.486;12.074;2023-01-04T05:47:35;23.90;;;18.13;;
33858;SDS011;20156;47.486;12.074;2023-01-04T05:50:01;22.10;;;17.43;;
33858;SDS011;20156;47.486;12.074;2023-01-04T05:52:27;20.10;;;16.03;;
33858;SDS011;20156;47.486;12.074;2023-01-04T05:54:52;27.67;;;19.97;;
33858;SDS011;20156;47.486;12.074;2023-01-04T05:57:18;30.07;;;21.87;;
33858;SDS011;20156;47.486;12.074;2023-01-04T05:59:46;23.60;;;17.83;;
33858;SDS011;20156;47.486;12.074;2023-01-04T06:02:17;25.10;;;19.10;;
33858;SDS011;20156;47.486;12.074;2023-01-04T06:04:45;26.00;;;20.93;;
33858;SDS011;20156;47.486;12.074;2023-01-04T06:07:11;21.80;;;16.83;;
33858;SDS011;20156;47.486;12.074;2023-01-04T06:09:37;24.93;;;19.47;;
33858;SDS011;20156;47.486;12.074;2023-01-04T06:12:02;21.17;;;15.07;;
33858;SDS011;20156;47.486;12.074;2023-01-04T06:14:28;25.53;;;18.27;;
33858;SDS011;20156;47.486;12.074;2023-01-04T06:16:53;27.53;;;19.17;;
33858;SDS011;20156;47.486;12.074;2023-01-04T06:19:19;27.53;;;20.57;;
33858;SDS011;20156;47.486;12.074;2023-01-04T06:21:44;28.73;;;19.70;;
33858;SDS011;20156;47.486;12.074;2023-01-04T06:24:10;29.47;;;20.27;;
33858;SDS011;20156;47.486;12.074;2023-01-04T06:26:35;26.47;;;19.33;;
33858;SDS011;20156;47.486;12.074;2023-01-04T06:29:01;26.20;;;19.53;;
33858;SDS011;20156;47.486;12.074;2023-01-04T06:31:27;24.23;;;18.13;;
33858;SDS011;20156;47.486;12.074;2023-01-04T06:33:52;29.40;;;21.40;;
33858;SDS011;20156;47.486;12.074;2023-01-04T06:36:17;29.13;;;21.17;;
33858;SDS011;20156;47.486;12.074;2023-01-04T06:38:43;24.93;;;17.77;;
33858;SDS011;20156;47.486;12.074;2023-01-04T06:41:08;21.27;;;15.93;;
33858;SDS011;20156;47.486;12.074;2023-01-04T06:43:34;25.90;;;19.13;;
33858;SDS011;20156;47.486;12.074;2023-01-04T06:45:59;25.10;;;18.70;;
33858;SDS011;20156;47.486;12.074;2023-01-04T06:48:25;21.10;;;16.50;;
33858;SDS011;20156;47.486;12.074;2023-01-04T06:50:51;29.80;;;20.23;;
33858;SDS011;20156;47.486;12.074;2023-01-04T06:53:17;28.33;;;20.43;;
33858;SDS011;20156;47.486;12.074;2023-01-04T06:55:43;24.93;;;18.17;;
33858;SDS011;20156;47.486;12.074;2023-01-04T06:58:08;23.70;;;17.40;;
33858;SDS011;20156;47.486;12.074;2023-01-04T07:00:34;23.37;;;17.57;;
33858;SDS011;20156;47.486;12.074;2023-01-04T07:02:59;24.73;;;18.43;;
33858;SDS011;20156;47.486;12.074;2023-01-04T07:05:25;24.73;;;17.87;;
33858;SDS011;20156;47.486;12.074;2023-01-04T07:07:50;23.57;;;16.67;;
33858;SDS011;20156;47.486;12.074;2023-01-04T07:10:16;25.37;;;18.60;;
33858;SDS011;20156;47.486;12.074;2023-01-04T07:12:41;26.13;;;19.47;;
33858;SDS011;20156;47.486;12.074;2023-01-04T07:15:07;32.37;;;21.63;;
33858;SDS011;20156;47.486;12.074;2023-01-04T07:17:33;33.17;;;22.63;;
33858;SDS011;20156;47.486;12.074;2023-01-04T07:19:58;34.97;;;23.47;;
33858;SDS011;20156;47.486;12.074;2023-01-04T07:22:23;35.17;;;24.50;;
33858;SDS011;20156;47.486;12.074;2023-01-04T07:24:49;36.97;;;24.83;;
33858;SDS011;20156;47.486;12.074;2023-01-04T07:27:14;39.40;;;25.53;;
33858;SDS011;20156;47.486;12.074;2023-01-04T07:29:40;45.13;;;26.70;;
33858;SDS011;20156;47.486;12.074;2023-01-04T07:32:08;41.87;;;29.23;;
33858;SDS011;20156;47.486;12.074;2023-01-04T07:34:35;43.57;;;29.40;;
33858;SDS011;20156;47.486;12.074;2023-01-04T07:37:01;39.20;;;26.97;;
33858;SDS011;20156;47.486;12.074;2023-01-04T07:39:29;33.40;;;22.73;;
33858;SDS011;20156;47.486;12.074;2023-01-04T07:41:54;28.40;;;20.73;;
33858;SDS011;20156;47.486;12.074;2023-01-04T07:44:20;34.33;;;21.40;;
33858;SDS011;20156;47.486;12.074;2023-01-04T07:46:45;32.23;;;20.83;;
33858;SDS011;20156;47.486;12.074;2023-01-04T07:49:12;33.17;;;21.80;;
33858;SDS011;20156;47.486;12.074;2023-01-04T07:51:39;34.27;;;21.40;;
33858;SDS011;20156;47.486;12.074;2023-01-04T07:54:05;33.37;;;22.57;;
33858;SDS011;20156;47.486;12.074;2023-01-04T07:56:31;40.47;;;26.73;;
33858;SDS011;20156;47.486;12.074;2023-01-04T07:58:56;40.53;;;27.30;;
33858;SDS011;20156;47.486;12.074;2023-01-04T08:01:23;37.03;;;24.13;;
33858;SDS011;20156;47.486;12.074;2023-01-04T08:03:50;33.33;;;23.77;;
33858;SDS011;20156;47.486;12.074;2023-01-04T08:06:16;26.80;;;19.30;;
33858;SDS011;20156;47.486;12.074;2023-01-04T08:08:42;28.07;;;20.03;;
33858;SDS011;20156;47.486;12.074;2023-01-04T08:11:09;27.00;;;20.03;;
33858;SDS011;20156;47.486;12.074;2023-01-04T08:13:37;27.53;;;21.70;;
33858;SDS011;20156;47.486;12.074;2023-01-04T08:16:02;24.97;;;18.53;;
33858;SDS011;20156;47.486;12.074;2023-01-04T08:18:28;27.67;;;20.37;;
33858;SDS011;20156;47.486;12.074;2023-01-04T08:21:04;29.43;;;22.47;;
33858;SDS011;20156;47.486;12.074;2023-01-04T08:23:31;26.77;;;19.70;;
33858;SDS011;20156;47.486;12.074;2023-01-04T08:26:05;21.63;;;17.33;;
33858;SDS011;20156;47.486;12.074;2023-01-04T08:28:33;22.17;;;17.53;;
33858;SDS011;20156;47.486;12.074;2023-01-04T08:31:02;22.10;;;17.13;;
33858;SDS011;20156;47.486;12.074;2023-01-04T08:33:29;26.47;;;19.93;;
33858;SDS011;20156;47.486;12.074;2023-01-04T08:36:05;26.53;;;18.20;;
33858;SDS011;20156;47.486;12.074;2023-01-04T08:38:35;24.07;;;17.23;;
33858;SDS011;20156;47.486;12.074;2023-01-04T08:41:00;25.53;;;19.77;;
33858;SDS011;20156;47.486;12.074;2023-01-04T08:43:26;29.73;;;21.93;;
33858;SDS011;20156;47.486;12.074;2023-01-04T08:45:51;24.83;;;18.10;;
33858;SDS011;20156;47.486;12.074;2023-01-04T08:48:17;22.53;;;17.07;;
33858;SDS011;20156;47.486;12.074;2023-01-04T08:50:42;21.57;;;17.33;;
33858;SDS011;20156;47.486;12.074;2023-01-04T08:53:07;19.60;;;14.53;;
33858;SDS011;20156;47.486;12.074;2023-01-04T08:55:33;18.57;;;14.37;;
33858;SDS011;20156;47.486;12.074;2023-01-04T08:57:59;20.20;;;16.30;;
33858;SDS011;20156;47.486;12.074;2023-01-04T09:00:25;20.27;;;16.03;;
33858;SDS011;20156;47.486;12.074;2023-01-04T09:02:50;19.60;;;15.00;;
33858;SDS011;20156;47.486;12.074;2023-01-04T09:05:16;18.67;;;14.07;;
33858;SDS011;20156;47.486;12.074;2023-01-04T09:07:42;16.83;;;12.40;;
33858;SDS011;20156;47.486;12.074;2023-01-04T09:10:08;17.53;;;13.97;;
33858;SDS011;20156;47.486;12.074;2023-01-04T09:12:33;18.63;;;14.80;;
33858;SDS011;20156;47.486;12.074;2023-01-04T09:14:59;19.40;;;13.30;;
33858;SDS011;20156;47.486;12.074;2023-01-04T09:17:24;15.93;;;11.70;;
33858;SDS011;20156;47.486;12.074;2023-01-04T09:19:50;15.80;;;12.77;;
33858;SDS011;20156;47.486;12.074;2023-01-04T09:22:16;15.77;;;12.20;;
33858;SDS011;20156;47.486;12.074;2023-01-04T09:24:41;15.33;;;11.30;;
33858;SDS011;20156;47.486;12.074;2023-01-04T09:27:07;15.80;;;12.40;;
33858;SDS011;20156;47.486;12.074;2023-01-04T09:29:32;15.63;;;12.87;;
33858;SDS011;20156;47.486;12.074;2023-01-04T09:31:58;15.67;;;12.13;;
33858;SDS011;20156;47.486;12.074;2023-01-04T09:34:23;17.00;;;12.57;;
33858;SDS011;20156;47.486;12.074;2023-01-04T09:36:48;16.70;;;13.43;;
33858;SDS011;20156;47.486;12.074;2023-01-04T09:39:15;14.03;;;12.17;;
33858;SDS011;20156;47.486;12.074;2023-01-04T09:42:00;14.40;;;11.70;;
33858;SDS011;20156;47.486;12.074;2023-01-04T09:47:01;15.67;;;12.70;;
33858;SDS011;20156;47.486;12.074;2023-01-04T09:55:13;18.40;;;12.97;;
33858;SDS011;20156;47.486;12.074;2023-01-04T09:57:51;14.97;;;11.97;;
33858;SDS011;20156;47.486;12.074;2023-01-04T10:00:24;16.07;;;13.10;;
33858;SDS011;20156;47.486;12.074;2023-01-04T10:05:29;17.70;;;14.77;;
33858;SDS011;20156;47.486;12.074;2023-01-04T10:07:56;17.27;;;13.17;;
33858;SDS011;20156;47.486;12.074;2023-01-04T10:10:45;15.97;;;13.13;;
33858;SDS011;20156;47.486;12.074;2023-01-04T10:15:59;10.47;;;9.37;;
33858;SDS011;20156;47.486;12.074;2023-01-04T10:21:23;8.07;;;7.07;;
33858;SDS011;20156;47.486;12.074;2023-01-04T10:26:46;8.20;;;6.07;;
33858;SDS011;20156;47.486;12.074;2023-01-04T10:35:11;6.33;;;5.70;;
33858;SDS011;20156;47.486;12.074;2023-01-04T10:37:42;5.32;;;4.82;;
33858;SDS011;20156;47.486;12.074;2023-01-04T10:40:14;5.07;;;4.57;;
33858;SDS011;20156;47.486;12.074;2023-01-04T10:45:18;5.32;;;4.82;;
33858;SDS011;20156;47.486;12.074;2023-01-04T10:50:29;4.77;;;4.37;;
33858;SDS011;20156;47.486;12.074;2023-01-04T10:53:04;4.80;;;4.40;;
33858;SDS011;20156;47.486;12.074;2023-01-04T10:58:05;5.57;;;4.83;;
33858;SDS011;20156;47.486;12.074;2023-01-04T11:00:49;9.33;;;7.53;;
33858;SDS011;20156;47.486;12.074;2023-01-04T11:03:20;11.70;;;10.20;;
33858;SDS011;20156;47.486;12.074;2023-01-04T11:09:01;6.10;;;5.50;;
33858;SDS011;20156;47.486;12.074;2023-01-04T11:13:57;4.72;;;4.32;;
33858;SDS011;20156;47.486;12.074;2023-01-04T11:16:24;6.43;;;4.00;;
33858;SDS011;20156;47.486;12.074;2023-01-04T11:18:50;3.90;;;3.60;;
33858;SDS011;20156;47.486;12.074;2023-01-04T11:21:17;3.78;;;3.47;;
33858;SDS011;20156;47.486;12.074;2023-01-04T11:23:50;15.63;;;14.05;;
33858;SDS011;20156;47.486;12.074;2023-01-04T11:26:17;4.80;;;4.10;;
33858;SDS011;20156;47.486;12.074;2023-01-04T11:28:50;3.77;;;3.43;;
33858;SDS011;20156;47.486;12.074;2023-01-04T11:33:55;5.23;;;4.13;;
33858;SDS011;20156;47.486;12.074;2023-01-04T11:36:37;3.80;;;3.47;;
33858;SDS011;20156;47.486;12.074;2023-01-04T11:39:20;4.20;;;3.80;;
33858;SDS011;20156;47.486;12.074;2023-01-04T11:41:57;3.50;;;3.20;;
33858;SDS011;20156;47.486;12.074;2023-01-04T11:44:24;3.58;;;3.28;;
33858;SDS011;20156;47.486;12.074;2023-01-04T11:49:46;3.88;;;2.92;;
33858;SDS011;20156;47.486;12.074;2023-01-04T11:52:29;3.30;;;3.00;;
33858;SDS011;20156;47.486;12.074;2023-01-04T11:54:58;3.25;;;2.95;;
33858;SDS011;20156;47.486;12.074;2023-01-04T11:57:46;3.13;;;2.83;;
33858;SDS011;20156;47.486;12.074;2023-01-04T12:00:13;3.00;;;2.70;;
33858;SDS011;20156;47.486;12.074;2023-01-04T12:02:39;3.38;;;2.83;;
33858;SDS011;20156;47.486;12.074;2023-01-04T12:05:15;2.60;;;2.40;;
33858;SDS011;20156;47.486;12.074;2023-01-04T12:07:45;3.20;;;2.90;;
33858;SDS011;20156;47.486;12.074;2023-01-04T12:10:18;2.85;;;2.65;;
33858;SDS011;20156;47.486;12.074;2023-01-04T12:12:48;3.30;;;3.00;;
33858;SDS011;20156;47.486;12.074;2023-01-04T12:15:16;4.40;;;3.42;;
33858;SDS011;20156;47.486;12.074;2023-01-04T12:17:51;14.48;;;13.25;;
33858;SDS011;20156;47.486;12.074;2023-01-04T12:20:20;4.10;;;3.70;;
33858;SDS011;20156;47.486;12.074;2023-01-04T12:22:48;3.08;;;2.80;;
33858;SDS011;20156;47.486;12.074;2023-01-04T12:25:20;3.30;;;2.80;;
33858;SDS011;20156;47.486;12.074;2023-01-04T12:27:46;2.38;;;2.17;;
33858;SDS011;20156;47.486;12.074;2023-01-04T12:30:31;2.47;;;2.28;;
33858;SDS011;20156;47.486;12.074;2023-01-04T12:36:00;2.40;;;2.20;;
33858;SDS011;20156;47.486;12.074;2023-01-04T12:42:07;2.60;;;2.40;;
33858;SDS011;20156;47.486;12.074;2023-01-04T12:50:01;3.65;;;3.00;;
33858;SDS011;20156;47.486;12.074;2023-01-04T12:54:58;2.85;;;2.63;;
33858;SDS011;20156;47.486;12.074;2023-01-04T12:57:32;2.75;;;2.50;;
33858;SDS011;20156;47.486;12.074;2023-01-04T13:02:40;2.70;;;2.30;;
33858;SDS011;20156;47.486;12.074;2023-01-04T13:05:35;6.25;;;4.50;;
33858;SDS011;20156;47.486;12.074;2023-01-04T13:08:05;10.23;;;7.27;;
33858;SDS011;20156;47.486;12.074;2023-01-04T13:10:39;11.55;;;8.52;;
33858;SDS011;20156;47.486;12.074;2023-01-04T13:19:01;2.78;;;2.58;;
33858;SDS011;20156;47.486;12.074;2023-01-04T13:23:57;2.92;;;2.53;;
33858;SDS011;20156;47.486;12.074;2023-01-04T13:26:32;2.55;;;2.35;;
33858;SDS011;20156;47.486;12.074;2023-01-04T13:29:09;2.97;;;2.78;;
33858;SDS011;20156;47.486;12.074;2023-01-04T13:31:57;3.75;;;3.30;;
33858;SDS011;20156;47.486;12.074;2023-01-04T13:34:27;4.70;;;2.78;;
33858;SDS011;20156;47.486;12.074;2023-01-04T13:44:59;5.17;;;3.80;;
33858;SDS011;20156;47.486;12.074;2023-01-04T13:47:42;3.42;;;2.85;;
33858;SDS011;20156;47.486;12.074;2023-01-04T13:50:43;2.67;;;2.47;;
33858;SDS011;20156;47.486;12.074;2023-01-04T13:53:04;3.28;;;2.83;;
33858;SDS011;20156;47.486;12.074;2023-01-04T13:55:30;3.15;;;2.50;;
33858;SDS011;20156;47.486;12.074;2023-01-04T13:58:02;2.60;;;2.17;;
33858;SDS011;20156;47.486;12.074;2023-01-04T14:00:30;2.60;;;1.95;;
33858;SDS011;20156;47.486;12.074;2023-01-04T14:05:47;2.45;;;2.00;;
33858;SDS011;20156;47.486;12.074;2023-01-04T14:08:19;2.40;;;2.20;;
33858;SDS011;20156;47.486;12.074;2023-01-04T14:10:52;2.50;;;2.30;;
33858;SDS011;20156;47.486;12.074;2023-01-04T14:13:17;3.35;;;2.55;;
33858;SDS011;20156;47.486;12.074;2023-01-04T14:15:44;1.60;;;1.50;;
33858;SDS011;20156;47.486;12.074;2023-01-04T14:18:28;2.83;;;2.40;;
33858;SDS011;20156;47.486;12.074;2023-01-04T14:20:55;8.60;;;3.40;;
33858;SDS011;20156;47.486;12.074;2023-01-04T14:23:25;2.70;;;2.50;;
33858;SDS011;20156;47.486;12.074;2023-01-04T14:25:58;4.30;;;3.20;;
33858;SDS011;20156;47.486;12.074;2023-01-04T14:28:25;3.38;;;1.67;;
33858;SDS011;20156;47.486;12.074;2023-01-04T14:38:42;2.00;;;1.80;;
33858;SDS011;20156;47.486;12.074;2023-01-04T14:41:31;1.80;;;1.70;;
33858;SDS011;20156;47.486;12.074;2023-01-04T14:44:09;2.30;;;1.70;;
33858;SDS011;20156;47.486;12.074;2023-01-04T14:46:35;5.57;;;4.63;;
33858;SDS011;20156;47.486;12.074;2023-01-04T14:49:02;6.27;;;4.90;;
33858;SDS011;20156;47.486;12.074;2023-01-04T14:53:53;3.13;;;2.80;;
33858;SDS011;20156;47.486;12.074;2023-01-04T14:56:19;4.33;;;3.43;;
33858;SDS011;20156;47.486;12.074;2023-01-04T14:58:44;3.43;;;2.73;;
33858;SDS011;20156;47.486;12.074;2023-01-04T15:01:11;3.70;;;3.40;;
33858;SDS011;20156;47.486;12.074;2023-01-04T15:03:37;4.83;;;3.27;;
33858;SDS011;20156;47.486;12.074;2023-01-04T15:06:02;2.37;;;2.17;;
33858;SDS011;20156;47.486;12.074;2023-01-04T15:08:31;4.20;;;3.80;;
33858;SDS011;20156;47.486;12.074;2023-01-04T15:10:57;6.30;;;5.03;;
33858;SDS011;20156;47.486;12.074;2023-01-04T15:13:22;5.53;;;3.13;;
33858;SDS011;20156;47.486;12.074;2023-01-04T15:15:48;26.13;;;4.80;;
33858;SDS011;20156;47.486;12.074;2023-01-04T15:18:15;14.20;;;4.10;;
33858;SDS011;20156;47.486;12.074;2023-01-04T15:20:41;19.02;;;11.82;;
33858;SDS011;20156;47.486;12.074;2023-01-04T15:23:07;4.00;;;3.10;;
33858;SDS011;20156;47.486;12.074;2023-01-04T15:25:33;13.47;;;3.87;;
33858;SDS011;20156;47.486;12.074;2023-01-04T15:27:59;4.07;;;2.87;;
33858;SDS011;20156;47.486;12.074;2023-01-04T15:30:24;2.20;;;1.97;;
33858;SDS011;20156;47.486;12.074;2023-01-04T15:32:49;2.80;;;2.30;;
33858;SDS011;20156;47.486;12.074;2023-01-04T15:35:15;9.30;;;6.83;;
33858;SDS011;20156;47.486;12.074;2023-01-04T15:37:44;20.97;;;9.13;;
33858;SDS011;20156;47.486;12.074;2023-01-04T15:40:11;12.10;;;7.67;;
33858;SDS011;20156;47.486;12.074;2023-01-04T15:42:39;7.53;;;4.13;;
33858;SDS011;20156;47.486;12.074;2023-01-04T15:45:22;6.30;;;5.03;;
33858;SDS011;20156;47.486;12.074;2023-01-04T15:47:49;4.83;;;3.90;;
33858;SDS011;20156;47.486;12.074;2023-01-04T15:50:15;3.73;;;3.30;;
33858;SDS011;20156;47.486;12.074;2023-01-04T15:52:41;3.57;;;3.20;;
33858;SDS011;20156;47.486;12.074;2023-01-04T15:55:06;2.10;;;1.83;;
33858;SDS011;20156;47.486;12.074;2023-01-04T15:57:32;4.23;;;3.27;;
33858;SDS011;20156;47.486;12.074;2023-01-04T15:59:58;3.53;;;2.60;;
33858;SDS011;20156;47.486;12.074;2023-01-04T16:02:23;2.10;;;1.90;;
33858;SDS011;20156;47.486;12.074;2023-01-04T16:04:49;2.50;;;1.73;;
33858;SDS011;20156;47.486;12.074;2023-01-04T16:07:14;3.60;;;3.10;;
33858;SDS011;20156;47.486;12.074;2023-01-04T16:09:40;3.00;;;1.93;;
33858;SDS011;20156;47.486;12.074;2023-01-04T16:12:05;1.70;;;1.60;;
33858;SDS011;20156;47.486;12.074;2023-01-04T16:14:50;2.93;;;2.27;;
33858;SDS011;20156;47.486;12.074;2023-01-04T16:17:16;2.83;;;2.50;;
33858;SDS011;20156;47.486;12.074;2023-01-04T16:19:42;2.80;;;2.60;;
33858;SDS011;20156;47.486;12.074;2023-01-04T16:22:07;8.20;;;5.70;;
33858;SDS011;20156;47.486;12.074;2023-01-04T16:24:33;3.47;;;2.80;;
33858;SDS011;20156;47.486;12.074;2023-01-04T16:26:58;4.33;;;2.90;;
33858;SDS011;20156;47.486;12.074;2023-01-04T16:29:24;3.10;;;2.70;;
33858;SDS011;20156;47.486;12.074;2023-01-04T16:31:49;17.37;;;12.40;;
33858;SDS011;20156;47.486;12.074;2023-01-04T16:34:15;9.90;;;7.03;;
33858;SDS011;20156;47.486;12.074;2023-01-04T16:36:40;13.63;;;9.37;;
33858;SDS011;20156;47.486;12.074;2023-01-04T16:39:06;9.23;;;5.37;;
33858;SDS011;20156;47.486;12.074;2023-01-04T16:41:32;4.40;;;3.77;;